Terminal Aerodrome Forecast
Issued by NWS Atlanta, GA

Home | Current Version | Previous Version | Text Only | Print | Product List | Glossary On
Versions: 1 2 3 4 5 6 7 8 9 10 11 12 13 14 15 16 17 18 19 20 21 22 23 24 25 26 27 28 29 30 31 32 33 34 35 36
131
FTUS42 KFFC 120802 AAA
TAFATL
TAF AMD
KATL 120802Z 1208/1312 02004KT P6SM SCT070 BKN150
     FM121000 02003KT P6SM BKN040
     FM121500 02005KT P6SM BKN025
     FM121800 28007KT P6SM BKN035
     FM122100 29010G20KT P6SM SCT040
     FM130400 32012G22KT P6SM FEW050=

USA.gov is the U.S. government's official web portal to all federal, state and local government web resources and services.